Terminal Aerodrome Forecast
Issued by NWS

Home | Current Version | Previous Version | Text Only | Print | Product List | Glossary On
Versions: 1 2 3 4 5 6 7 8 9 10 11 12 13 14 15 16
000
FTUS42 KGSP 171740
TAFHKY
TAF
KHKY 171740Z 1718/1818 15004KT P6SM FEW250
     FM180300 VRB02KT P6SM SCT250
     FM180900 21004KT P6SM SCT120 BKN250
     FM181600 21008KT P6SM BKN025=

USA.gov is the U.S. government's official web portal to all federal, state and local government web resources and services.